createdAt,value
2016-05-06T00:00:36.884Z,10.06
2016-05-06T00:01:24.183Z,10.09
2016-05-06T00:02:24.640Z,9.94
2016-05-06T00:03:36.878Z,9.92
2016-05-06T00:04:36.942Z,10.09
2016-05-06T00:05:43.475Z,10.06
2016-05-06T00:06:43.463Z,9.97
2016-05-06T00:07:55.574Z,10.03
2016-05-06T00:08:49.984Z,10
2016-05-06T00:09:55.643Z,10.1
2016-05-06T00:10:25.177Z,10.02
2016-05-06T00:11:24.288Z,9.94
2016-05-06T00:12:55.667Z,10
2016-05-06T00:13:27.388Z,10.06
2016-05-06T00:14:27.516Z,10.02
2016-05-06T00:15:27.487Z,10.02
2016-05-06T00:16:33.740Z,10.05
2016-05-06T00:17:33.882Z,9.97
2016-05-06T00:18:27.340Z,9.97
2016-05-06T00:19:27.342Z,9.97
2016-05-06T00:20:27.515Z,9.91
2016-05-06T00:21:27.528Z,9.94
2016-05-06T00:22:27.593Z,10.02
2016-05-06T00:23:40.299Z,9.92
2016-05-06T00:24:27.598Z,10.07
2016-05-06T00:25:40.351Z,9.97
2016-05-06T00:26:27.463Z,9.97
2016-05-06T00:27:46.701Z,9.97
2016-05-06T00:28:30.515Z,10.02
2016-05-06T00:29:30.674Z,9.95
2016-05-06T00:30:30.709Z,9.99
2016-05-06T00:31:49.961Z,9.92
2016-05-06T00:32:30.745Z,9.92
2016-05-06T00:33:30.779Z,9.94
2016-05-06T00:34:38.297Z,9.94
2016-05-06T00:35:36.910Z,9.97
2016-05-06T00:36:30.818Z,9.97
2016-05-06T00:37:30.836Z,9.95
2016-05-06T00:38:32.276Z,10
2016-05-06T00:39:36.983Z,9.82
2016-05-06T00:40:30.719Z,9.87
2016-05-06T00:41:43.644Z,9.84
2016-05-06T00:42:30.975Z,9.91
2016-05-06T00:43:49.978Z,9.92
2016-05-06T00:44:30.949Z,9.9
2016-05-06T00:45:30.967Z,9.88
2016-05-06T00:46:30.922Z,9.82
2016-05-06T00:47:30.675Z,9.84
2016-05-06T00:48:31.022Z,9.87
2016-05-06T00:49:37.306Z,9.85
2016-05-06T00:50:30.887Z,9.8
2016-05-06T00:51:50.280Z,9.77
2016-05-06T00:52:31.127Z,9.8
2016-05-06T00:53:30.927Z,9.76
2016-05-06T00:54:43.866Z,9.8
2016-05-06T00:55:32.635Z,9.81
2016-05-06T00:56:31.138Z,9.74
2016-05-06T00:57:43.734Z,9.8
2016-05-06T00:58:43.799Z,9.69
2016-05-06T00:59:31.207Z,9.76
2016-05-06T01:00:43.977Z,9.73
2016-05-06T01:01:31.245Z,9.8
2016-05-06T01:02:31.263Z,9.76
2016-05-06T01:03:44.031Z,9.73
2016-05-06T01:04:31.268Z,9.69
2016-05-06T01:05:31.162Z,9.76
2016-05-06T01:06:31.962Z,9.63
2016-05-06T01:08:33.920Z,9.59
2016-05-06T01:08:46.420Z,9.66
2016-05-06T01:09:46.173Z,9.64
2016-05-06T01:10:59.066Z,9.66
2016-05-06T01:11:59.365Z,9.58
2016-05-06T01:12:46.477Z,9.58
2016-05-06T01:14:05.715Z,9.62
2016-05-06T01:14:59.264Z,9.59
2016-05-06T01:15:46.548Z,9.62
2016-05-06T01:17:05.816Z,9.58
2016-05-06T01:17:46.585Z,9.56
2016-05-06T01:18:46.588Z,9.63
2016-05-06T01:19:46.450Z,9.58
2016-05-06T01:20:59.374Z,9.62
2016-05-06T01:21:46.485Z,9.54
2016-05-06T01:22:59.411Z,9.59
2016-05-06T01:23:46.507Z,9.58
2016-05-06T01:25:05.963Z,9.54
2016-05-06T01:25:53.121Z,9.45
2016-05-06T01:27:49.315Z,9.45
2016-05-06T01:28:05.065Z,9.56
2016-05-06T01:29:05.052Z,9.58
2016-05-06T01:30:05.085Z,9.42
2016-05-06T01:31:05.104Z,9.48
2016-05-06T01:32:05.107Z,9.51
2016-05-06T01:33:05.140Z,9.49
2016-05-06T01:34:05.143Z,9.47
2016-05-06T01:35:05.083Z,9.49
2016-05-06T01:36:05.790Z,9.45
2016-05-06T01:37:17.917Z,9.45
2016-05-06T01:38:05.216Z,9.42
2016-05-06T01:39:24.551Z,9.48
2016-05-06T01:40:05.691Z,9.42
2016-05-06T01:41:30.930Z,9.45
2016-05-06T01:42:05.289Z,9.42
2016-05-06T01:43:05.168Z,9.47
2016-05-06T01:44:05.311Z,9.4
2016-05-06T01:45:12.220Z,9.51
2016-05-06T01:46:17.956Z,9.44
2016-05-06T01:47:05.366Z,9.37
2016-05-06T01:49:14.997Z,9.37
2016-05-06T01:50:27.766Z,9.37
2016-05-06T01:51:16.454Z,9.42
2016-05-06T01:52:34.289Z,9.44
2016-05-06T01:53:15.086Z,9.42
2016-05-06T01:54:15.072Z,9.37
2016-05-06T01:55:15.121Z,9.39
2016-05-06T01:56:15.156Z,9.4
2016-05-06T01:57:16.565Z,9.36
2016-05-06T01:58:21.286Z,9.29
2016-05-06T01:59:16.601Z,9.31
2016-05-06T02:00:27.935Z,9.29
2016-05-06T02:01:15.060Z,9.27
2016-05-06T02:02:40.924Z,9.3
2016-05-06T02:03:24.739Z,9.26
2016-05-06T02:04:24.774Z,9.24
2016-05-06T02:05:24.792Z,9.13
2016-05-06T02:06:24.638Z,9.21
2016-05-06T02:07:31.078Z,9.15
2016-05-06T02:08:25.268Z,9.21
2016-05-06T02:09:37.709Z,9.19
2016-05-06T02:10:24.852Z,9.15
2016-05-06T02:11:24.855Z,9.13
2016-05-06T02:12:37.654Z,9.18
2016-05-06T02:13:31.189Z,9.16
2016-05-06T02:14:24.769Z,9.09
2016-05-06T02:15:24.772Z,9.15
2016-05-06T02:16:37.728Z,8.97
2016-05-06T02:17:24.981Z,9.11
2016-05-06T02:18:44.217Z,9.13
2016-05-06T02:19:25.017Z,9.08
2016-05-06T02:21:21.991Z,9.05
2016-05-06T02:21:34.663Z,8.99
2016-05-06T02:22:34.666Z,9
2016-05-06T02:23:34.687Z,9.03
2016-05-06T02:24:34.722Z,9
2016-05-06T02:25:34.959Z,8.97
2016-05-06T02:26:47.493Z,8.95
2016-05-06T02:27:34.995Z,8.97
2016-05-06T02:28:34.764Z,8.89
2016-05-06T02:29:34.781Z,8.95
2016-05-06T02:30:34.817Z,8.89
2016-05-06T02:31:34.819Z,8.92
2016-05-06T02:32:34.852Z,8.86
2016-05-06T02:33:34.714Z,8.97
2016-05-06T02:34:47.608Z,8.89
2016-05-06T02:35:34.908Z,8.93
2016-05-06T02:36:34.925Z,8.9
2016-05-06T02:37:34.945Z,8.82
2016-05-06T02:38:34.947Z,8.81
2016-05-06T02:39:35.403Z,8.79
2016-05-06T02:40:36.343Z,8.82
2016-05-06T02:41:35.017Z,8.81
2016-05-06T02:42:47.738Z,8.86
2016-05-06T02:43:35.055Z,8.79
2016-05-06T02:44:35.041Z,8.71
2016-05-06T02:45:35.074Z,8.66
2016-05-06T02:46:47.813Z,8.77
2016-05-06T02:47:34.971Z,8.72
2016-05-06T02:48:54.176Z,8.69
2016-05-06T02:49:35.132Z,8.74
2016-05-06T02:51:00.824Z,8.69
2016-05-06T02:51:47.826Z,8.69
2016-05-06T02:52:44.797Z,8.69
2016-05-06T02:53:44.707Z,8.69
2016-05-06T02:54:51.098Z,8.57
2016-05-06T02:55:45.384Z,8.61
2016-05-06T02:56:44.870Z,8.6
2016-05-06T02:57:44.732Z,8.54
2016-05-06T02:58:44.970Z,8.56
2016-05-06T02:59:45.129Z,8.52
2016-05-06T03:00:44.944Z,8.52
2016-05-06T03:01:44.961Z,8.42
2016-05-06T03:02:44.981Z,8.42
2016-05-06T03:03:57.733Z,8.42
2016-05-06T03:04:45.017Z,8.45
2016-05-06T03:06:04.238Z,8.45
2016-05-06T03:06:45.038Z,8.45
2016-05-06T03:08:10.556Z,8.45
2016-05-06T03:08:44.933Z,8.5
2016-05-06T03:09:44.905Z,8.41
2016-05-06T03:10:45.283Z,8.44
2016-05-06T03:11:45.208Z,8.38
2016-05-06T03:12:45.116Z,8.42
2016-05-06T03:13:51.432Z,8.36
2016-05-06T03:14:45.027Z,8.36
2016-05-06T03:16:04.235Z,8.38
2016-05-06T03:17:13.658Z,8.41
2016-05-06T03:18:13.896Z,8.36
2016-05-06T03:19:20.148Z,8.41
2016-05-06T03:20:19.526Z,8.38
2016-05-06T03:20:48.263Z,8.36
2016-05-06T03:21:48.265Z,8.38
2016-05-06T03:23:01.221Z,8.49
2016-05-06T03:23:48.318Z,8.41
2016-05-06T03:25:07.540Z,8.42
2016-05-06T03:25:49.245Z,8.42
2016-05-06T03:26:48.201Z,8.42
2016-05-06T03:27:48.376Z,8.44
2016-05-06T03:28:48.409Z,8.46
2016-05-06T03:29:48.272Z,8.41
2016-05-06T03:30:48.431Z,8.42
2016-05-06T03:32:01.198Z,8.38
2016-05-06T03:32:49.889Z,8.52
2016-05-06T03:34:01.298Z,8.45
2016-05-06T03:34:48.503Z,8.46
2016-05-06T03:36:07.709Z,8.52
2016-05-06T03:36:49.166Z,8.41
2016-05-06T03:37:48.419Z,8.49
2016-05-06T03:39:01.296Z,8.54
2016-05-06T03:39:49.189Z,8.45
2016-05-06T03:42:30.361Z,8.53
2016-05-06T03:43:30.290Z,8.41
2016-05-06T03:44:43.041Z,8.39
2016-05-06T03:45:30.325Z,8.49
2016-05-06T03:46:42.922Z,8.49
2016-05-06T03:47:31.784Z,8.52
2016-05-06T03:48:49.630Z,8.49
2016-05-06T03:49:49.586Z,8.49
2016-05-06T03:50:30.260Z,8.52
2016-05-06T03:52:45.922Z,8.56
2016-05-06T03:53:45.753Z,8.57
2016-05-06T03:54:46.163Z,8.57
2016-05-06T03:55:52.212Z,8.57
2016-05-06T03:56:49.324Z,8.53
2016-05-06T03:58:08.545Z,8.63
2016-05-06T03:58:55.642Z,8.64
2016-05-06T04:00:15.332Z,8.64
2016-05-06T04:00:49.398Z,8.68
2016-05-06T04:02:20.696Z,8.63
2016-05-06T04:03:02.230Z,8.63
2016-05-06T04:04:20.749Z,8.68
2016-05-06T04:04:55.751Z,8.69
2016-05-06T04:07:04.554Z,8.77
2016-05-06T04:08:04.635Z,8.75
2016-05-06T04:09:04.450Z,8.77
2016-05-06T04:10:04.655Z,8.78
2016-05-06T04:11:04.503Z,8.86
2016-05-06T04:12:05.926Z,8.87
2016-05-06T04:13:10.930Z,8.87
2016-05-06T04:14:17.260Z,8.82
2016-05-06T04:15:23.919Z,8.95
2016-05-06T04:16:30.408Z,8.9
2016-05-06T04:17:36.052Z,8.86
2016-05-06T04:18:36.648Z,8.87
2016-05-06T04:20:04.792Z,9.05
2016-05-06T04:21:04.826Z,9.11
2016-05-06T04:22:05.438Z,9.09
2016-05-06T04:23:04.877Z,9.15
2016-05-06T04:24:17.599Z,9.13
2016-05-06T04:25:05.477Z,9.16
2016-05-06T04:26:04.729Z,9.16
2016-05-06T04:27:04.904Z,9.27
2016-05-06T04:28:04.938Z,9.29
2016-05-06T04:29:17.410Z,9.3
2016-05-06T04:30:04.975Z,9.3
2016-05-06T04:31:24.212Z,9.3
2016-05-06T04:32:14.277Z,9.31
2016-05-06T04:33:17.421Z,9.37
2016-05-06T04:34:17.439Z,9.37
2016-05-06T04:36:58.212Z,9.49
2016-05-06T04:37:32.543Z,9.58
2016-05-06T04:38:32.592Z,9.55
2016-05-06T04:39:32.611Z,9.54
2016-05-06T04:40:45.333Z,9.66
2016-05-06T04:41:45.289Z,9.7
2016-05-06T04:42:51.681Z,9.73
2016-05-06T04:43:51.856Z,9.72
2016-05-06T04:44:58.359Z,9.76
2016-05-06T04:45:58.377Z,9.67
2016-05-06T04:46:32.739Z,9.8
2016-05-06T04:47:32.742Z,9.82
2016-05-06T04:48:42.073Z,9.81
2016-05-06T04:49:42.075Z,9.82
2016-05-06T04:50:42.360Z,9.82
2016-05-06T04:51:42.377Z,9.88
2016-05-06T04:52:55.021Z,9.95
2016-05-06T04:53:48.680Z,9.88
2016-05-06T04:54:42.402Z,9.97
2016-05-06T04:55:55.185Z,9.97
2016-05-06T04:56:42.391Z,9.91
2016-05-06T04:58:01.566Z,9.97
2016-05-06T04:58:42.396Z,10.05
2016-05-06T05:00:08.071Z,10.09
2016-05-06T05:00:51.995Z,10.06
2016-05-06T05:02:11.233Z,10.24
2016-05-06T05:02:51.892Z,10.24
2016-05-06T05:04:17.737Z,10.27
2016-05-06T05:04:58.366Z,10.31
2016-05-06T05:06:23.400Z,10.43
2016-05-06T05:06:52.106Z,10.42
2016-05-06T05:07:51.967Z,10.57
2016-05-06T05:08:58.456Z,10.65
2016-05-06T05:09:58.442Z,10.72
2016-05-06T05:11:05.249Z,11.1
2016-05-06T05:11:52.283Z,11.55
2016-05-06T05:13:11.551Z,12.81
2016-05-06T05:13:52.633Z,13.36
2016-05-06T05:15:55.093Z,14.94
2016-05-06T05:16:07.624Z,14.99
2016-05-06T05:17:07.644Z,15.44
2016-05-06T05:18:20.429Z,15.72
2016-05-06T05:19:07.870Z,15.85
2016-05-06T05:20:33.451Z,16.22
2016-05-06T05:21:07.889Z,16.29
2016-05-06T05:22:07.663Z,16.8
2016-05-06T05:23:07.907Z,17.46
2016-05-06T05:24:07.899Z,18.02
2016-05-06T05:25:07.768Z,18.61
2016-05-06T05:26:07.931Z,18.94
2016-05-06T05:27:07.968Z,19.37
2016-05-06T05:28:07.972Z,20.12
2016-05-06T05:29:07.978Z,20.73
2016-05-06T05:30:08.044Z,20.53
2016-05-06T05:31:08.048Z,20.58
2016-05-06T05:32:07.943Z,20.39
2016-05-06T05:33:08.102Z,20.59
2016-05-06T05:34:08.122Z,20.74
2016-05-06T05:35:09.578Z,21.14
2016-05-06T05:36:08.238Z,21.48
2016-05-06T05:37:08.209Z,21.62
2016-05-06T05:38:08.229Z,22.06
2016-05-06T05:39:08.263Z,22.68
2016-05-06T05:40:08.125Z,22.65
2016-05-06T05:41:08.175Z,22.74
2016-05-06T05:42:08.350Z,22.76
2016-05-06T05:43:08.477Z,22.46
2016-05-06T05:44:08.402Z,22.23
2016-05-06T05:45:08.421Z,22.37
2016-05-06T05:46:08.454Z,22.25
2016-05-06T05:47:14.754Z,22.49
2016-05-06T05:48:08.335Z,22.31
2016-05-06T05:49:08.541Z,22.33
2016-05-06T05:50:08.543Z,22.16
2016-05-06T05:51:08.562Z,22.23
2016-05-06T05:52:08.579Z,22.31
2016-05-06T05:53:08.504Z,22.58
2016-05-06T05:54:08.648Z,22.65
2016-05-06T05:55:08.682Z,22.65
2016-05-06T05:56:08.559Z,22.83
2016-05-06T05:57:08.749Z,22.47
2016-05-06T05:58:08.893Z,22.4
2016-05-06T05:59:08.786Z,22.62
2016-05-06T06:00:08.867Z,23.01
2016-05-06T06:01:08.682Z,23.07
2016-05-06T06:02:08.872Z,23.49
2016-05-06T06:03:08.922Z,23.42
2016-05-06T06:04:11.987Z,23.47
2016-05-06T06:05:08.989Z,23.28
2016-05-06T06:06:09.008Z,24.04
2016-05-06T06:07:08.870Z,24.94
2016-05-06T06:08:09.061Z,24.47
2016-05-06T06:09:09.110Z,24.74
2016-05-06T06:10:09.113Z,24.38
2016-05-06T06:11:10.568Z,23.99
2016-05-06T06:12:09.024Z,24.14
2016-05-06T06:13:09.199Z,24.14
2016-05-06T06:14:09.233Z,24.07
2016-05-06T06:15:21.986Z,24.19
2016-05-06T06:16:22.050Z,23.82
2016-05-06T06:17:09.177Z,23.86
2016-05-06T06:18:09.400Z,24.21
2016-05-06T06:19:11.840Z,24.53
2016-05-06T06:20:09.311Z,24.75
2016-05-06T06:21:22.158Z,24.5
2016-05-06T06:22:09.348Z,23.84
2016-05-06T06:23:09.523Z,24.18
2016-05-06T06:24:09.525Z,25.01
2016-05-06T06:25:09.575Z,25.96
2016-05-06T06:26:22.421Z,26.51
2016-05-06T06:27:09.721Z,26.74
2016-05-06T06:28:28.867Z,26.93
2016-05-06T06:29:09.539Z,27.26
2016-05-06T06:30:09.728Z,27.35
2016-05-06T06:31:16.029Z,26.7
2016-05-06T06:32:09.781Z,26.83
2016-05-06T06:33:09.814Z,26.66
2016-05-06T06:34:09.834Z,26.11
2016-05-06T06:35:09.898Z,26.3
2016-05-06T06:36:09.932Z,26.83
2016-05-06T06:37:09.920Z,27.64
2016-05-06T06:38:09.984Z,28.35
2016-05-06T06:39:10.003Z,29.13
2016-05-06T06:40:10.069Z,29.42
2016-05-06T06:41:10.164Z,29.15
2016-05-06T06:42:10.105Z,28.87
2016-05-06T06:43:10.122Z,28.35
2016-05-06T06:44:10.157Z,27.58
2016-05-06T06:45:10.207Z,28.35
2016-05-06T06:46:10.225Z,28.77
2016-05-06T06:47:10.509Z,28.49
2016-05-06T06:48:10.121Z,27.52
2016-05-06T06:49:10.499Z,26.71
2016-05-06T06:50:10.220Z,26.37
2016-05-06T06:51:10.535Z,26.07
2016-05-06T06:52:10.538Z,25.36
2016-05-06T06:53:10.557Z,24.77
2016-05-06T06:54:23.231Z,24.24
2016-05-06T06:55:10.609Z,24.4
2016-05-06T06:56:10.767Z,24.53
2016-05-06T06:57:10.567Z,24.69
2016-05-06T06:58:10.726Z,25.25
2016-05-06T06:59:10.619Z,25.52
2016-05-06T07:00:10.779Z,25.95
2016-05-06T07:01:10.718Z,25.73
2016-05-06T07:02:10.753Z,25.86
2016-05-06T07:03:17.037Z,25.98
2016-05-06T07:04:10.804Z,26.07
2016-05-06T07:05:10.853Z,26.24
2016-05-06T07:06:10.856Z,26.49
2016-05-06T07:07:10.953Z,26.55
2016-05-06T07:08:10.925Z,26.39
2016-05-06T07:09:10.989Z,26.15
2016-05-06T07:10:10.978Z,26.36
2016-05-06T07:11:12.667Z,25.52
2016-05-06T07:12:11.091Z,25.3
2016-05-06T07:13:23.828Z,24.99
2016-05-06T07:14:17.378Z,25.51
2016-05-06T07:15:11.177Z,25.85
2016-05-06T07:16:23.743Z,26.07
2016-05-06T07:17:11.214Z,26.59
2016-05-06T07:18:11.264Z,26.81
2016-05-06T07:19:11.283Z,26.37
2016-05-06T07:20:11.160Z,26.34
2016-05-06T07:21:12.741Z,26.51
2016-05-06T07:22:11.352Z,26.13
2016-05-06T07:23:11.423Z,25.61
2016-05-06T07:24:17.785Z,25.18
2016-05-06T07:25:24.193Z,25.03
2016-05-06T07:26:14.368Z,24.69
2016-05-06T07:27:30.577Z,25.49
2016-05-06T07:28:11.562Z,26.03
2016-05-06T07:29:11.595Z,26.49
2016-05-06T07:30:11.489Z,26.34
2016-05-06T07:31:11.664Z,26.39
2016-05-06T07:32:11.792Z,26.04
2016-05-06T07:33:11.716Z,26.23
2016-05-06T07:34:11.750Z,26.1
2016-05-06T07:35:11.627Z,26.7
2016-05-06T07:36:12.442Z,26.76
2016-05-06T07:37:11.851Z,27.53
2016-05-06T07:38:11.885Z,27.58
2016-05-06T07:39:11.919Z,28.06
2016-05-06T07:40:11.953Z,28.7
2016-05-06T07:41:12.034Z,28.2
2016-05-06T07:42:11.849Z,28.75
2016-05-06T07:43:12.102Z,29.39
2016-05-06T07:44:12.074Z,29.12
2016-05-06T07:45:24.857Z,29.46
2016-05-06T07:46:12.157Z,29.52
2016-05-06T07:47:31.378Z,29.13
2016-05-06T07:48:12.052Z,28.33
2016-05-06T07:49:12.228Z,27.52
2016-05-06T07:50:12.465Z,27.66
2016-05-06T07:51:12.310Z,27.67
2016-05-06T07:52:12.235Z,27.58
2016-05-06T07:53:12.410Z,27.23
2016-05-06T07:54:12.412Z,27.04
2016-05-06T07:55:12.446Z,27.22
2016-05-06T07:56:12.684Z,27.44
2016-05-06T07:57:12.515Z,27.58
2016-05-06T07:58:12.564Z,27.44
2016-05-06T07:59:12.427Z,26.68
2016-05-06T08:00:12.476Z,25.67
2016-05-06T08:01:25.431Z,25.21
2016-05-06T08:02:12.700Z,24.65
2016-05-06T08:03:32.046Z,23.91
2016-05-06T08:04:12.752Z,23.21
2016-05-06T08:05:12.801Z,22.61
2016-05-06T08:06:12.804Z,22.33
2016-05-06T08:07:12.854Z,21.88
2016-05-06T08:08:25.622Z,21.37
2016-05-06T08:09:12.750Z,21.13
2016-05-06T08:10:32.128Z,20.88
2016-05-06T08:11:13.442Z,20.74
2016-05-06T08:12:12.992Z,20.71
2016-05-06T08:13:13.026Z,20.85
2016-05-06T08:14:13.108Z,20.7
2016-05-06T08:15:13.094Z,20.4
2016-05-06T08:16:25.847Z,20.24
2016-05-06T08:17:25.896Z,20.26
2016-05-06T08:18:13.024Z,20.18
2016-05-06T08:19:32.402Z,20.04
2016-05-06T08:20:13.248Z,19.96
2016-05-06T08:21:12.938Z,19.85
2016-05-06T08:22:13.316Z,19.82
2016-05-06T08:23:13.194Z,19.77
2016-05-06T08:24:13.337Z,19.82
2016-05-06T08:25:19.637Z,19.81
2016-05-06T08:26:13.765Z,19.89
2016-05-06T08:27:13.267Z,19.97
2016-05-06T08:28:13.442Z,20.15
2016-05-06T08:29:13.460Z,20.03
2016-05-06T08:30:13.368Z,19.89
2016-05-06T08:31:13.387Z,19.93
2016-05-06T08:32:13.562Z,20.11
2016-05-06T08:33:13.596Z,20.17
2016-05-06T08:34:13.629Z,20.42
2016-05-06T08:35:26.367Z,20.52
2016-05-06T08:36:13.510Z,20.6
2016-05-06T08:37:13.528Z,20.63
2016-05-06T08:38:19.828Z,20.37
2016-05-06T08:39:13.752Z,20.53
2016-05-06T08:40:13.787Z,20.42
2016-05-06T08:41:15.836Z,20.49
2016-05-06T08:42:26.558Z,20.21
2016-05-06T08:43:16.903Z,20.24
2016-05-06T08:44:13.860Z,20.11
2016-05-06T08:45:32.972Z,20.36
2016-05-06T08:46:14.396Z,20.34
2016-05-06T08:47:33.164Z,20.56
2016-05-06T08:48:13.980Z,20.5
2016-05-06T08:49:45.297Z,20.36
2016-05-06T08:50:29.110Z,20.44
2016-05-06T08:51:29.144Z,20.46
2016-05-06T08:52:29.318Z,20.46
2016-05-06T08:53:29.181Z,20.36
2016-05-06T08:54:35.515Z,20.53
2016-05-06T08:55:29.327Z,20.73
2016-05-06T08:56:42.488Z,20.71
2016-05-06T08:57:29.473Z,20.63
2016-05-06T08:58:54.994Z,20.67
2016-05-06T08:59:29.557Z,20.5
2016-05-06T09:01:00.812Z,20.44
2016-05-06T09:01:35.423Z,20.48
2016-05-06T09:02:32.626Z,20.46
2016-05-06T09:03:45.335Z,20.5
2016-05-06T09:04:32.632Z,20.44
2016-05-06T09:05:32.667Z,20.55
2016-05-06T09:06:32.669Z,20.49
2016-05-06T09:07:32.718Z,20.59
2016-05-06T09:08:32.705Z,20.74
2016-05-06T09:09:32.770Z,20.9
2016-05-06T09:10:32.633Z,20.78
2016-05-06T09:11:32.714Z,20.63
2016-05-06T09:12:32.686Z,20.59
2016-05-06T09:13:32.859Z,20.64
2016-05-06T09:14:32.566Z,20.67
2016-05-06T09:15:32.943Z,20.73
2016-05-06T09:16:45.683Z,20.89
2016-05-06T09:17:32.964Z,20.96
2016-05-06T09:18:58.672Z,21.22
2016-05-06T09:20:01.878Z,21.22
2016-05-06T09:20:42.693Z,21.08
2016-05-06T09:22:08.400Z,20.85
2016-05-06T09:22:52.324Z,20.9
2016-05-06T09:24:11.560Z,20.92
2016-05-06T09:24:52.361Z,20.89
2016-05-06T09:25:52.380Z,21.05
2016-05-06T09:26:52.304Z,21.14
2016-05-06T09:27:52.432Z,21.32
2016-05-06T09:28:52.590Z,21.35
2016-05-06T09:29:52.468Z,21.37
2016-05-06T09:30:52.423Z,21.32
2016-05-06T09:31:52.551Z,21.26
2016-05-06T09:32:52.570Z,21.11
2016-05-06T09:33:52.604Z,21.05
2016-05-06T09:34:52.685Z,21.07
2016-05-06T09:35:52.656Z,20.96
2016-05-06T09:36:52.706Z,20.9
2016-05-06T09:37:53.084Z,21.05
2016-05-06T09:38:52.758Z,21.26
2016-05-06T09:39:52.932Z,21.35
2016-05-06T09:40:52.795Z,21.45
2016-05-06T09:41:52.906Z,21.63
2016-05-06T09:42:52.847Z,21.81
2016-05-06T09:43:52.850Z,21.99
2016-05-06T09:44:52.900Z,21.84
2016-05-06T09:45:52.902Z,21.89
2016-05-06T09:46:52.936Z,21.91
2016-05-06T09:47:52.970Z,21.85
2016-05-06T09:49:05.769Z,21.77
2016-05-06T09:49:52.990Z,21.75
2016-05-06T09:51:05.759Z,21.74
2016-05-06T09:51:52.902Z,21.6
2016-05-06T09:53:18.749Z,21.81
2016-05-06T09:53:59.408Z,21.84
2016-05-06T09:55:24.410Z,22.08
2016-05-06T09:56:02.804Z,22.1
2016-05-06T09:57:34.010Z,22.04
2016-05-06T09:58:12.215Z,22.08
2016-05-06T09:59:12.249Z,22.03
2016-05-06T10:00:25.001Z,22.07
2016-05-06T10:01:12.130Z,22.08
2016-05-06T10:02:31.382Z,22.12
2016-05-06T10:03:15.353Z,22.01
2016-05-06T10:04:15.372Z,21.88
2016-05-06T10:05:15.265Z,21.96
2016-05-06T10:06:15.439Z,21.96
2016-05-06T10:07:15.474Z,22.07
2016-05-06T10:08:15.507Z,22.18
2016-05-06T10:09:15.526Z,22.31
2016-05-06T10:10:21.638Z,22.52
2016-05-06T10:11:17.640Z,22.58
2016-05-06T10:12:15.643Z,22.68
2016-05-06T10:13:28.381Z,22.67
2016-05-06T10:14:15.634Z,22.74
2016-05-06T10:15:15.683Z,22.63
2016-05-06T10:16:15.717Z,22.61
2016-05-06T10:17:15.719Z,22.8
2016-05-06T10:18:15.753Z,22.89
2016-05-06T10:19:17.194Z,22.83
2016-05-06T10:20:15.805Z,22.74
2016-05-06T10:21:15.856Z,22.65
2016-05-06T10:22:15.874Z,22.68
2016-05-06T10:23:15.923Z,22.63
2016-05-06T10:24:15.754Z,22.81
2016-05-06T10:25:15.943Z,22.89
2016-05-06T10:26:17.369Z,22.92
2016-05-06T10:27:16.777Z,22.89
2016-05-06T10:28:15.999Z,23.02
2016-05-06T10:29:16.049Z,23.1
2016-05-06T10:30:15.926Z,23.06
2016-05-06T10:31:28.835Z,23.01
2016-05-06T10:32:16.151Z,23.01
2016-05-06T10:33:16.154Z,23.23
2016-05-06T10:34:16.171Z,23.1
2016-05-06T10:35:16.205Z,23.06
2016-05-06T10:36:16.270Z,23.16
2016-05-06T10:37:16.101Z,23.29
2016-05-06T10:38:16.292Z,23.42
2016-05-06T10:39:16.294Z,23.36
2016-05-06T10:40:16.797Z,23.37
2016-05-06T10:41:16.831Z,23.32
2016-05-06T10:42:16.396Z,23.52
2016-05-06T10:43:16.523Z,23.2
2016-05-06T10:44:16.448Z,23.16
2016-05-06T10:45:16.623Z,23.18
2016-05-06T10:46:16.484Z,23.18
2016-05-06T10:47:16.597Z,23.25
2016-05-06T10:48:16.240Z,23.16
2016-05-06T10:49:16.571Z,22.8
2016-05-06T10:50:16.465Z,22.84
2016-05-06T10:51:16.467Z,22.67
2016-05-06T10:52:16.672Z,22.65
2016-05-06T10:53:16.675Z,22.67
2016-05-06T10:54:16.569Z,22.7
2016-05-06T10:55:16.759Z,22.65
2016-05-06T10:56:16.684Z,22.65
2016-05-06T10:57:23.061Z,22.77
2016-05-06T10:58:23.080Z,22.86
2016-05-06T10:59:16.832Z,23.01
2016-05-06T11:00:36.117Z,23.28
2016-05-06T11:01:16.915Z,23.29
2016-05-06T11:02:16.935Z,23.34
2016-05-06T11:03:16.874Z,23.55
2016-05-06T11:04:16.987Z,23.58
2016-05-06T11:05:17.035Z,23.51
2016-05-06T11:06:16.882Z,23.29
2016-05-06T11:07:18.526Z,23.37
2016-05-06T11:08:17.123Z,23.45
2016-05-06T11:09:17.187Z,23.59
2016-05-06T11:10:17.237Z,23.7
2016-05-06T11:11:17.021Z,23.45
2016-05-06T11:12:17.259Z,23.48
2016-05-06T11:13:17.214Z,23.42
2016-05-06T11:14:17.264Z,23.52
2016-05-06T11:15:17.110Z,23.51
2016-05-06T11:16:17.315Z,23.54
2016-05-06T11:17:17.334Z,23.59
2016-05-06T11:18:17.228Z,23.63
2016-05-06T11:19:17.370Z,23.7
2016-05-06T11:20:17.295Z,23.63
2016-05-06T11:21:17.439Z,23.69
2016-05-06T11:22:17.489Z,23.71
2016-05-06T11:23:17.491Z,23.73
2016-05-06T11:24:17.524Z,23.74
2016-05-06T11:25:17.637Z,23.84
2016-05-06T11:26:17.608Z,23.73
2016-05-06T11:27:17.611Z,23.62
2016-05-06T11:28:17.630Z,23.66
2016-05-06T11:29:17.866Z,23.64
2016-05-06T11:30:17.682Z,23.62
2016-05-06T11:31:23.841Z,23.49
2016-05-06T11:32:17.733Z,23.47
2016-05-06T11:33:17.783Z,23.39
2016-05-06T11:34:17.802Z,23.39
2016-05-06T11:35:17.804Z,23.51
2016-05-06T11:36:17.839Z,23.34
2016-05-06T11:37:17.904Z,23.48
2016-05-06T11:38:17.906Z,23.55
2016-05-06T11:39:17.925Z,23.62
2016-05-06T11:40:17.959Z,23.51
2016-05-06T11:41:30.727Z,23.52
2016-05-06T11:42:18.323Z,23.62
2016-05-06T11:43:37.888Z,23.63
2016-05-06T11:44:18.079Z,23.7
2016-05-06T11:45:43.909Z,23.86
2016-05-06T11:46:18.350Z,23.89
2016-05-06T11:47:44.196Z,23.88
2016-05-06T11:48:24.698Z,23.99
2016-05-06T11:49:18.154Z,23.88
2016-05-06T11:50:18.345Z,23.86
2016-05-06T11:51:18.348Z,23.92
2016-05-06T11:52:31.100Z,23.84
2016-05-06T11:53:18.931Z,23.84
2016-05-06T11:54:44.043Z,23.95
2016-05-06T11:55:53.580Z,23.84
2016-05-06T11:57:03.285Z,23.82
2016-05-06T11:57:37.597Z,23.79
2016-05-06T11:58:37.492Z,23.66
2016-05-06T11:59:37.650Z,23.66
2016-05-06T12:00:37.887Z,23.71
2016-05-06T12:01:50.453Z,23.66
2016-05-06T12:02:37.799Z,23.62
2016-05-06T12:03:56.851Z,23.64
2016-05-06T12:04:43.882Z,23.63
2016-05-06T12:05:57.029Z,23.74
2016-05-06T12:06:40.982Z,23.85
2016-05-06T12:07:40.874Z,23.88
2016-05-06T12:08:41.050Z,23.59
2016-05-06T12:09:41.083Z,23.7
2016-05-06T12:10:40.821Z,23.63
2016-05-06T12:11:41.245Z,23.62
2016-05-06T12:12:41.154Z,23.81
2016-05-06T12:13:42.594Z,23.85
2016-05-06T12:14:41.206Z,23.94
2016-05-06T12:15:41.240Z,24.07
2016-05-06T12:16:41.273Z,24.13
2016-05-06T12:17:41.152Z,24.11
2016-05-06T12:18:41.436Z,24.16
2016-05-06T12:19:41.360Z,24.01
2016-05-06T12:20:41.473Z,24.18
2016-05-06T12:21:41.397Z,24.09
2016-05-06T12:22:41.431Z,24.07
2016-05-06T12:23:41.450Z,24.06
2016-05-06T12:24:41.342Z,24.19
2016-05-06T12:25:41.361Z,24.13
2016-05-06T12:26:42.426Z,24.22
2016-05-06T12:27:41.570Z,24.18
2016-05-06T12:28:42.197Z,24.26
2016-05-06T12:29:41.746Z,24.13
2016-05-06T12:30:41.500Z,24.06
2016-05-06T12:31:41.689Z,24.07
2016-05-06T12:32:41.583Z,24.16
2016-05-06T12:33:41.742Z,24.18
2016-05-06T12:34:48.041Z,24.19
2016-05-06T12:35:54.530Z,24.07
2016-05-06T12:36:41.827Z,24.18
2016-05-06T12:37:41.831Z,24.22
2016-05-06T12:38:41.849Z,24.21
2016-05-06T12:39:41.898Z,24.16
2016-05-06T12:40:41.917Z,24.06
2016-05-06T12:41:42.482Z,24.11
2016-05-06T12:42:41.828Z,24.09
2016-05-06T12:43:54.724Z,24.21
2016-05-06T12:44:42.084Z,24.29
2016-05-06T12:45:42.055Z,24.14
2016-05-06T12:46:54.698Z,24.14
2016-05-06T12:48:01.298Z,24.25
2016-05-06T12:49:07.785Z,24.28
2016-05-06T12:50:10.960Z,24.22
2016-05-06T12:50:51.694Z,24.18
2016-05-06T12:52:54.387Z,24.18
2016-05-06T12:53:42.936Z,24.13
2016-05-06T12:54:07.189Z,24.14
2016-05-06T12:55:16.582Z,24.16
2016-05-06T12:56:13.788Z,24.19
2016-05-06T12:57:07.119Z,24.03
2016-05-06T12:58:07.309Z,24.04
2016-05-06T12:59:07.156Z,24.04
2016-05-06T13:00:07.361Z,24.1
2016-05-06T13:01:07.364Z,24.22
2016-05-06T13:02:19.992Z,24.18
2016-05-06T13:03:07.275Z,24.28
2016-05-06T13:04:07.450Z,24.24
2016-05-06T13:05:07.516Z,24.37
2016-05-06T13:06:07.283Z,24.22
2016-05-06T13:07:08.255Z,24.16
2016-05-06T13:08:09.696Z,24.28
2016-05-06T13:09:07.448Z,24.29
2016-05-06T13:10:07.638Z,24.32
2016-05-06T13:11:07.547Z,24.32
2016-05-06T13:12:08.456Z,24.38
2016-05-06T13:13:07.709Z,24.61
2016-05-06T13:14:20.477Z,24.55
2016-05-06T13:15:07.761Z,24.62